Time;durP1;ratioP1;P1;durP2;ratioP2;P2;SDS_P1;SDS_P2;PMS_P1;PMS_P2;Temp;Humidity;BMP_temperature;BMP_pressure;BME280_temperature;BME280_humidity;BME280_pressure;Samples;Min_cycle;Max_cycle;Signal;HPM_P1;HPM_P2
2022/08/03 00:02:15;;;;;;;6.77;1.73;;;21.40;99.90;;;;;;5019330;28;20215;-48
2022/08/03 00:04:42;;;;;;;6.43;2.30;;;21.30;99.90;;;;;;5018296;28;20324;-47
2022/08/03 00:07:09;;;;;;;9.87;2.50;;;21.30;99.90;;;;;;5018507;28;20601;-50
2022/08/03 00:09:36;;;;;;;5.87;2.10;;;21.20;99.90;;;;;;5017310;28;20618;-49
2022/08/03 00:12:04;;;;;;;6.90;2.20;;;21.20;99.90;;;;;;5015672;28;20209;-49
2022/08/03 00:14:31;;;;;;;7.13;2.53;;;21.20;99.90;;;;;;5018607;28;20286;-49
2022/08/03 00:16:58;;;;;;;7.97;2.10;;;21.20;99.90;;;;;;5015812;28;20719;-47
2022/08/03 00:19:25;;;;;;;5.03;2.47;;;21.20;99.90;;;;;;5018896;28;20626;-48
2022/08/03 00:21:52;;;;;;;6.67;2.27;;;21.20;99.90;;;;;;5015151;28;20712;-48
2022/08/03 00:24:19;;;;;;;7.27;2.40;;;21.30;99.90;;;;;;5019090;28;20286;-50
2022/08/03 00:26:46;;;;;;;2.73;1.63;;;21.30;99.90;;;;;;5018584;28;20258;-49
2022/08/03 00:29:13;;;;;;;5.07;1.90;;;21.30;99.90;;;;;;5020360;28;20209;-49
2022/08/03 00:31:40;;;;;;;10.00;2.33;;;21.30;99.90;;;;;;5019431;28;20205;-47
2022/08/03 00:34:18;;;;;;;6.80;2.30;;;21.30;99.90;;;;;;5020539;28;20244;-51
2022/08/03 00:37:02;;;;;;;7.67;2.50;;;21.20;99.90;;;;;;5019394;28;20212;-50
2022/08/03 00:39:29;;;;;;;5.13;2.40;;;21.00;99.90;;;;;;5020168;28;20631;-50
2022/08/03 00:41:56;;;;;;;6.53;2.37;;;21.00;99.90;;;;;;5017348;28;20212;-51
2022/08/03 00:44:23;;;;;;;4.60;2.10;;;21.10;99.90;;;;;;5022675;28;20204;-49
2022/08/03 00:46:50;;;;;;;9.83;2.43;;;21.00;99.90;;;;;;5021196;28;20209;-48
2022/08/03 00:49:17;;;;;;;8.27;2.67;;;21.10;99.90;;;;;;5023157;28;20213;-51
2022/08/03 00:51:44;;;;;;;6.43;3.17;;;21.00;99.90;;;;;;5022023;28;20264;-50
2022/08/03 00:54:11;;;;;;;7.77;2.90;;;20.90;99.90;;;;;;5023059;28;20260;-50
2022/08/03 00:56:38;;;;;;;9.10;3.23;;;21.00;99.90;;;;;;5022959;28;20219;-50
2022/08/03 00:59:28;;;;;;;6.77;2.90;;;21.10;99.90;;;;;;5022050;28;20722;-51
2022/08/03 01:01:56;;;;;;;7.17;2.90;;;20.90;99.90;;;;;;5022631;28;20207;-50
2022/08/03 01:04:23;;;;;;;5.90;3.47;;;20.90;99.90;;;;;;5022994;28;20208;-51
2022/08/03 01:07:14;;;;;;;8.47;3.30;;;20.90;99.90;;;;;;5039481;28;20650;-49
2022/08/03 01:10:02;;;;;;;7.20;2.83;;;20.90;99.90;;;;;;5023748;28;20609;-49
2022/08/03 01:13:03;;;;;;;9.30;4.03;;;20.90;99.90;;;;;;5024070;28;20202;-48
2022/08/03 01:15:45;;;;;;;9.00;3.23;;;20.80;99.90;;;;;;5019603;28;20215;-50
2022/08/03 01:18:19;;;;;;;9.97;3.63;;;20.80;99.90;;;;;;5023678;28;20200;-48
2022/08/03 01:20:52;;;;;;;8.37;3.80;;;20.90;99.90;;;;;;5023311;28;20229;-47
2022/08/03 01:24:06;;;;;;;7.77;2.80;;;20.80;99.90;;;;;;5022633;28;20649;-48
2022/08/03 01:27:01;;;;;;;6.53;3.10;;;20.80;99.90;;;;;;5010566;28;20201;-47
2022/08/03 01:29:55;;;;;;;9.27;3.50;;;20.80;99.90;;;;;;5010333;28;20221;-48
2022/08/03 01:32:59;;;;;;;13.67;4.40;;;20.80;99.90;;;;;;5009874;28;20218;-48
2022/08/03 01:35:33;;;;;;;5.80;3.20;;;20.80;99.90;;;;;;4994636;28;20669;-49
2022/08/03 01:38:10;;;;;;;8.23;3.30;;;20.70;99.90;;;;;;5009990;28;20212;-47
2022/08/03 01:40:40;;;;;;;8.50;3.30;;;20.80;99.90;;;;;;5009939;28;20746;-51
2022/08/03 01:43:11;;;;;;;10.57;3.53;;;20.70;99.90;;;;;;5010488;28;20718;-48
2022/08/03 01:45:41;;;;;;;6.33;3.43;;;20.70;99.90;;;;;;4994386;28;20293;-47
2022/08/03 01:48:11;;;;;;;6.50;3.57;;;20.70;99.90;;;;;;5009793;28;20202;-49
2022/08/03 01:50:39;;;;;;;7.57;3.27;;;20.70;99.90;;;;;;5009896;28;20246;-48
2022/08/03 01:53:08;;;;;;;8.37;3.40;;;20.70;99.90;;;;;;5002031;28;20224;-47
2022/08/03 01:55:37;;;;;;;7.50;3.60;;;20.70;99.90;;;;;;5009030;28;20240;-48
2022/08/03 01:58:06;;;;;;;7.00;3.53;;;20.80;99.90;;;;;;5010193;28;20254;-49
2022/08/03 02:00:39;;;;;;;7.47;3.73;;;20.70;99.90;;;;;;5016470;28;20233;-50
2022/08/03 02:03:12;;;;;;;8.17;3.60;;;20.60;99.90;;;;;;5021161;28;20211;-49
2022/08/03 02:05:40;;;;;;;6.57;4.00;;;20.60;99.90;;;;;;5022171;28;20692;-49
2022/08/03 02:08:09;;;;;;;6.30;3.57;;;20.60;99.90;;;;;;5021650;28;20197;-53
2022/08/03 02:10:39;;;;;;;11.77;4.20;;;20.40;99.90;;;;;;5028794;28;20209;-49
2022/08/03 02:13:07;;;;;;;10.80;4.40;;;20.40;99.90;;;;;;5020564;28;20646;-49
2022/08/03 02:15:38;;;;;;;8.03;3.50;;;20.40;99.90;;;;;;5021940;28;20584;-49
2022/08/03 02:18:07;;;;;;;7.30;3.80;;;20.40;99.90;;;;;;5020412;28;20661;-49
2022/08/03 02:20:40;;;;;;;10.37;4.00;;;20.40;99.90;;;;;;5020666;28;20224;-48
2022/08/03 02:23:08;;;;;;;8.53;3.93;;;20.40;99.90;;;;;;5015927;28;20297;-48
2022/08/03 02:25:43;;;;;;;9.03;4.63;;;20.50;99.90;;;;;;5019669;28;20211;-50
2022/08/03 02:28:15;;;;;;;7.13;3.70;;;20.50;99.90;;;;;;5017375;28;20236;-47
2022/08/03 02:30:45;;;;;;;8.93;3.70;;;20.40;99.90;;;;;;5021402;28;20217;-49
2022/08/03 02:33:27;;;;;;;8.03;3.97;;;20.40;99.90;;;;;;5022090;28;20211;-48
2022/08/03 02:35:56;;;;;;;9.03;3.90;;;20.20;99.90;;;;;;5022084;28;20212;-48
2022/08/03 02:38:33;;;;;;;8.37;3.73;;;20.30;99.90;;;;;;5021774;28;20217;-48
2022/08/03 02:41:06;;;;;;;9.63;4.27;;;20.30;99.90;;;;;;5021534;28;20250;-48
2022/08/03 02:43:36;;;;;;;6.87;4.00;;;20.20;99.90;;;;;;5021119;28;20308;-49
2022/08/03 02:46:29;;;;;;;6.53;4.10;;;20.30;99.90;;;;;;5020238;28;20218;-47
2022/08/03 02:48:58;;;;;;;8.27;3.63;;;20.40;99.90;;;;;;5021135;28;20200;-48
2022/08/03 02:51:47;;;;;;;8.43;3.70;;;20.40;99.90;;;;;;5020484;28;20320;-49
2022/08/03 02:54:18;;;;;;;9.60;4.03;;;20.30;99.90;;;;;;5021646;28;20228;-47
2022/08/03 02:56:46;;;;;;;7.03;3.87;;;20.40;99.90;;;;;;5020359;28;20235;-49
2022/08/03 02:59:15;;;;;;;6.57;3.80;;;20.40;99.90;;;;;;5019617;28;20205;-49
2022/08/03 03:01:44;;;;;;;6.33;3.90;;;20.30;99.90;;;;;;5020102;28;20219;-49
2022/08/03 03:04:12;;;;;;;12.70;4.33;;;20.30;99.90;;;;;;5020586;28;20220;-49
2022/08/03 03:06:41;;;;;;;7.17;3.87;;;20.30;99.90;;;;;;5021525;28;20603;-50
2022/08/03 03:09:10;;;;;;;9.93;4.60;;;20.30;99.90;;;;;;5020372;28;20209;-49
2022/08/03 03:11:39;;;;;;;8.33;3.83;;;20.30;99.90;;;;;;5020216;28;20551;-48
2022/08/03 03:14:09;;;;;;;10.70;4.23;;;20.30;99.90;;;;;;5020298;28;20605;-48
2022/08/03 03:16:37;;;;;;;8.60;4.43;;;20.30;99.90;;;;;;5020782;28;20649;-47
2022/08/03 03:19:06;;;;;;;7.63;3.83;;;20.20;99.90;;;;;;5018179;28;20241;-49
2022/08/03 03:21:41;;;;;;;11.43;4.07;;;20.10;99.90;;;;;;5020374;28;20263;-50
2022/08/03 03:24:09;;;;;;;8.50;4.43;;;20.10;99.90;;;;;;5020357;28;20259;-50
2022/08/03 03:26:37;;;;;;;9.60;4.53;;;20.00;99.90;;;;;;5021962;28;20585;-49
2022/08/03 03:29:08;;;;;;;9.63;4.90;;;20.00;99.90;;;;;;5019384;28;20300;-50
2022/08/03 03:31:36;;;;;;;5.97;4.07;;;20.10;99.90;;;;;;5019093;28;20269;-48
2022/08/03 03:34:03;;;;;;;6.40;4.40;;;20.10;99.90;;;;;;5018135;28;20240;-47
2022/08/03 03:36:32;;;;;;;7.73;5.17;;;20.10;99.90;;;;;;5020545;28;20212;-48
2022/08/03 03:38:59;;;;;;;6.97;4.23;;;20.00;99.90;;;;;;5021282;28;20201;-47
2022/08/03 03:41:42;;;;;;;6.00;3.87;;;19.90;99.90;;;;;;5019462;28;20209;-48
2022/08/03 03:44:09;;;;;;;8.53;4.17;;;19.80;99.90;;;;;;5021095;28;20513;-48
2022/08/03 03:46:37;;;;;;;7.77;4.33;;;19.90;99.90;;;;;;5019121;28;20204;-46
2022/08/03 03:49:06;;;;;;;9.50;3.60;;;19.90;99.90;;;;;;5020827;28;20209;-49
2022/08/03 03:51:34;;;;;;;12.50;4.20;;;20.00;99.90;;;;;;5018540;28;20250;-49
2022/08/03 03:54:04;;;;;;;8.17;5.00;;;20.00;99.90;;;;;;5019942;28;20292;-47
2022/08/03 03:56:32;;;;;;;7.93;4.30;;;19.80;99.90;;;;;;5017989;28;20209;-49
2022/08/03 03:58:59;;;;;;;9.00;4.40;;;19.80;99.90;;;;;;5020485;28;20263;-48
2022/08/03 04:01:26;;;;;;;6.43;4.13;;;19.80;99.90;;;;;;5018173;28;20217;-46
2022/08/03 04:03:53;;;;;;;9.27;3.70;;;19.90;99.90;;;;;;5018986;28;20683;-49
2022/08/03 04:11:59;;;;;;;9.37;4.23;;;20.00;99.90;;;;;;5014507;28;20208;-49
2022/08/03 04:14:33;;;;;;;12.93;5.10;;;19.90;99.90;;;;;;5019429;28;20561;-50
2022/08/03 04:17:03;;;;;;;5.53;3.93;;;19.80;99.90;;;;;;5014748;28;20620;-50
2022/08/03 04:19:35;;;;;;;7.23;3.90;;;19.70;99.90;;;;;;5018737;28;20209;-48
2022/08/03 04:22:11;;;;;;;6.53;3.63;;;19.70;99.90;;;;;;5019550;28;20250;-48
2022/08/03 04:24:46;;;;;;;7.70;3.40;;;19.80;99.90;;;;;;5018791;28;20623;-48
2022/08/03 04:27:16;;;;;;;6.17;3.80;;;19.80;99.90;;;;;;5018634;28;20201;-51
2022/08/03 04:29:46;;;;;;;8.07;4.40;;;19.80;99.90;;;;;;5019396;28;20213;-48
2022/08/03 04:32:16;;;;;;;10.47;5.00;;;19.80;99.90;;;;;;5018811;28;20216;-48
2022/08/03 04:34:44;;;;;;;11.23;3.43;;;19.60;99.90;;;;;;5014948;28;20208;-47
2022/08/03 04:37:23;;;;;;;6.87;3.27;;;19.70;99.90;;;;;;5009317;28;20209;-48
2022/08/03 04:39:53;;;;;;;5.53;3.50;;;19.70;99.90;;;;;;5019758;28;20232;-47
2022/08/03 04:42:24;;;;;;;8.60;4.33;;;19.70;99.90;;;;;;5019139;28;20205;-47
2022/08/03 04:44:52;;;;;;;7.50;4.07;;;19.60;99.90;;;;;;5019551;28;20656;-49
2022/08/03 04:47:26;;;;;;;6.23;4.40;;;19.50;99.90;;;;;;5019229;28;20205;-47
2022/08/03 04:49:53;;;;;;;7.73;4.20;;;19.40;99.90;;;;;;5019561;28;20213;-47
2022/08/03 04:52:20;;;;;;;11.20;5.13;;;19.40;99.90;;;;;;5018926;28;20248;-48
2022/08/03 04:54:48;;;;;;;8.40;4.87;;;19.30;99.90;;;;;;5017628;28;20264;-49
2022/08/03 04:57:17;;;;;;;8.83;4.27;;;19.40;99.90;;;;;;5018805;28;20209;-48
2022/08/03 04:59:53;;;;;;;7.73;4.13;;;19.40;99.90;;;;;;5017677;28;20720;-48
2022/08/03 05:02:29;;;;;;;7.33;4.37;;;19.60;99.90;;;;;;5019082;28;20196;-49
2022/08/03 05:04:59;;;;;;;10.93;4.87;;;19.50;99.90;;;;;;5018912;28;20236;-48
2022/08/03 05:07:26;;;;;;;8.90;4.00;;;19.40;99.90;;;;;;5015278;28;20206;-48
2022/08/03 05:10:04;;;;;;;8.33;4.13;;;19.50;99.90;;;;;;5019537;28;20236;-49
2022/08/03 05:12:40;;;;;;;11.20;3.63;;;19.40;99.90;;;;;;5021302;28;20200;-49
2022/08/03 05:15:07;;;;;;;7.00;4.00;;;19.50;99.90;;;;;;5018802;28;20221;-48
2022/08/03 05:17:35;;;;;;;6.00;3.43;;;19.60;99.90;;;;;;5017207;28;20393;-50
2022/08/03 05:20:03;;;;;;;7.83;4.03;;;19.80;99.90;;;;;;5019187;28;20220;-48
2022/08/03 05:22:30;;;;;;;7.67;3.73;;;19.80;99.90;;;;;;5016281;28;20233;-47
2022/08/03 05:24:57;;;;;;;6.63;3.77;;;19.80;99.90;;;;;;5014083;28;20291;-49
2022/08/03 05:27:24;;;;;;;6.03;3.47;;;19.80;99.90;;;;;;5016739;28;20212;-48
2022/08/03 05:29:51;;;;;;;5.87;3.30;;;19.80;99.90;;;;;;5015868;28;20216;-48
2022/08/03 05:32:18;;;;;;;5.87;3.17;;;20.00;99.90;;;;;;5022408;28;20453;-49
2022/08/03 05:34:46;;;;;;;8.73;3.77;;;19.90;99.90;;;;;;5017293;28;20247;-49
2022/08/03 05:37:13;;;;;;;7.70;3.60;;;20.00;99.90;;;;;;5021531;28;20212;-48
2022/08/03 05:39:40;;;;;;;8.30;3.30;;;20.10;99.90;;;;;;5016797;28;20251;-48
2022/08/03 05:42:06;;;;;;;6.77;3.27;;;20.10;99.90;;;;;;5021192;28;20208;-49
2022/08/03 05:44:37;;;;;;;9.03;3.30;;;20.10;99.90;;;;;;5021924;28;20201;-49
2022/08/03 05:47:05;;;;;;;12.50;3.43;;;20.10;99.90;;;;;;5020020;28;20628;-50
2022/08/03 05:49:32;;;;;;;5.90;3.20;;;20.10;99.90;;;;;;5017615;28;20244;-48
2022/08/03 05:51:59;;;;;;;6.10;2.93;;;20.20;99.90;;;;;;5019958;28;20613;-49
2022/08/03 05:54:42;;;;;;;11.10;4.07;;;20.10;99.90;;;;;;5022356;28;20236;-49
2022/08/03 05:57:24;;;;;;;4.83;3.47;;;20.20;99.90;;;;;;5022712;28;20214;-49
2022/08/03 05:59:51;;;;;;;5.40;3.50;;;20.30;99.90;;;;;;5021922;28;20218;-48
2022/08/03 06:02:28;;;;;;;8.03;3.33;;;20.30;99.90;;;;;;5013313;28;20213;-49
2022/08/03 06:04:55;;;;;;;8.73;3.67;;;20.30;99.90;;;;;;5021374;28;20636;-48
2022/08/03 06:07:24;;;;;;;14.03;4.27;;;20.40;99.90;;;;;;5005238;28;20266;-50
2022/08/03 06:09:51;;;;;;;5.00;2.80;;;20.50;99.90;;;;;;5021683;28;20563;-49
2022/08/03 06:12:40;;;;;;;5.40;3.37;;;20.40;99.90;;;;;;5020821;28;20216;-48
2022/08/03 06:15:07;;;;;;;7.80;2.70;;;20.50;99.90;;;;;;5021726;28;20606;-49
2022/08/03 06:17:50;;;;;;;10.20;3.73;;;20.70;99.90;;;;;;5020485;28;20238;-47
2022/08/03 06:20:19;;;;;;;7.50;3.07;;;20.80;99.90;;;;;;5022028;28;20631;-49
2022/08/03 06:22:47;;;;;;;4.83;3.37;;;20.80;99.90;;;;;;5020810;28;20210;-48
2022/08/03 06:25:26;;;;;;;7.50;2.90;;;20.90;99.90;;;;;;5020795;28;20201;-47
2022/08/03 06:27:53;;;;;;;7.53;3.87;;;20.90;99.90;;;;;;5022087;28;20207;-49
2022/08/03 06:30:20;;;;;;;9.70;2.87;;;21.00;99.90;;;;;;5021280;28;20295;-49
2022/08/03 06:32:47;;;;;;;6.50;3.03;;;21.00;99.90;;;;;;5021091;28;20205;-49
2022/08/03 06:35:18;;;;;;;10.20;3.77;;;21.00;99.90;;;;;;5019043;28;20240;-46
2022/08/03 06:37:48;;;;;;;7.73;2.87;;;21.10;99.90;;;;;;5015649;28;20664;-48
2022/08/03 06:40:17;;;;;;;8.07;3.40;;;21.10;99.90;;;;;;5020354;28;20217;-50
2022/08/03 06:42:49;;;;;;;12.67;3.33;;;21.20;99.90;;;;;;5021869;28;20209;-50
2022/08/03 06:45:17;;;;;;;8.07;2.90;;;21.30;99.90;;;;;;5020708;28;20220;-50
2022/08/03 06:47:44;;;;;;;8.03;2.77;;;21.50;99.90;;;;;;5021083;28;20209;-49
2022/08/03 06:50:11;;;;;;;10.67;3.23;;;21.40;99.90;;;;;;5020475;28;20212;-49
2022/08/03 06:52:43;;;;;;;11.73;2.53;;;21.70;99.90;;;;;;5020987;28;20245;-49
2022/08/03 06:55:10;;;;;;;6.23;2.97;;;22.00;99.90;;;;;;5020387;28;20314;-50
2022/08/03 06:57:38;;;;;;;9.37;2.97;;;22.20;99.90;;;;;;5019477;28;20232;-50
2022/08/03 07:00:06;;;;;;;10.10;2.87;;;22.30;99.90;;;;;;5019257;28;20653;-49
2022/08/03 07:02:38;;;;;;;8.30;2.47;;;22.30;99.90;;;;;;5020299;28;20201;-50
2022/08/03 07:05:07;;;;;;;7.07;2.80;;;22.40;99.90;;;;;;5020836;28;20205;-51
2022/08/03 07:07:34;;;;;;;7.90;2.33;;;22.60;99.90;;;;;;5021320;28;20196;-51
2022/08/03 07:10:02;;;;;;;8.27;2.67;;;22.70;99.90;;;;;;5020451;28;20256;-49
2022/08/03 07:12:30;;;;;;;6.60;2.17;;;22.60;99.90;;;;;;5016898;28;20616;-49
2022/08/03 07:14:58;;;;;;;8.17;2.80;;;22.80;99.90;;;;;;5019868;28;20203;-51
2022/08/03 07:17:30;;;;;;;8.73;2.13;;;22.90;99.90;;;;;;5019941;28;20600;-51
2022/08/03 07:19:57;;;;;;;7.10;1.90;;;22.90;99.90;;;;;;5020278;28;20215;-49
2022/08/03 07:22:24;;;;;;;11.47;2.30;;;23.10;99.90;;;;;;5017923;28;20230;-50
2022/08/03 07:24:51;;;;;;;8.73;2.80;;;23.30;99.90;;;;;;5015403;28;20748;-49
2022/08/03 07:27:18;;;;;;;10.47;2.20;;;23.60;99.90;;;;;;5018638;28;20617;-49
2022/08/03 07:29:45;;;;;;;8.87;2.30;;;23.50;99.90;;;;;;5018766;28;20205;-52
2022/08/03 07:32:12;;;;;;;12.90;2.27;;;23.40;99.90;;;;;;5018407;28;20213;-50
2022/08/03 07:34:39;;;;;;;9.20;2.63;;;23.60;99.90;;;;;;5015589;28;20211;-50
2022/08/03 07:37:06;;;;;;;8.83;2.20;;;23.50;99.90;;;;;;5019143;28;20207;-50
2022/08/03 07:39:35;;;;;;;7.77;2.40;;;23.60;99.90;;;;;;5020250;28;20690;-50
2022/08/03 07:42:02;;;;;;;15.53;2.07;;;23.70;99.90;;;;;;5019256;28;20221;-51
2022/08/03 07:44:29;;;;;;;11.50;2.57;;;23.80;99.90;;;;;;5019803;28;20208;-50
2022/08/03 07:46:56;;;;;;;6.50;2.30;;;23.70;99.90;;;;;;5019166;28;20568;-50
2022/08/03 07:49:23;;;;;;;7.80;2.13;;;23.80;99.90;;;;;;5018834;28;20217;-50
2022/08/03 07:52:46;;;;;;;15.97;2.50;;;24.10;99.90;;;;;;5017745;28;20245;-51
2022/08/03 07:54:37;;;;;;;10.27;2.40;;;24.10;99.90;;;;;;5019213;28;20739;-50
2022/08/03 07:57:04;;;;;;;8.47;2.37;;;24.30;99.90;;;;;;5018093;28;20211;-51
2022/08/03 07:59:31;;;;;;;14.27;2.17;;;24.50;99.90;;;;;;5016465;28;20230;-50
2022/08/03 08:02:18;;;;;;;9.13;2.47;;;24.50;99.90;;;;;;5019079;28;20233;-50
2022/08/03 08:04:45;;;;;;;10.13;2.90;;;24.50;99.90;;;;;;5018985;28;20215;-50
2022/08/03 08:07:12;;;;;;;8.17;1.87;;;24.50;99.90;;;;;;5019681;28;20705;-51
2022/08/03 08:09:41;;;;;;;9.73;1.83;;;24.50;99.90;;;;;;5020030;28;20657;-50
2022/08/03 08:12:09;;;;;;;9.67;3.13;;;24.50;99.90;;;;;;5016329;28;20569;-50
2022/08/03 08:14:44;;;;;;;13.33;2.57;;;24.80;99.90;;;;;;5019541;28;20549;-50
2022/08/03 08:17:12;;;;;;;5.97;2.00;;;25.20;99.90;;;;;;5020849;28;20302;-49
2022/08/03 08:19:39;;;;;;;8.80;2.20;;;25.10;99.90;;;;;;5019314;28;20247;-49
2022/08/03 08:22:18;;;;;;;8.13;2.20;;;25.30;99.90;;;;;;5018975;28;20578;-53
2022/08/03 08:24:55;;;;;;;7.47;2.17;;;25.30;99.90;;;;;;5019705;28;20205;-51
2022/08/03 08:27:22;;;;;;;9.60;2.50;;;25.60;99.90;;;;;;5019379;28;20209;-51
2022/08/03 08:29:49;;;;;;;16.20;2.23;;;25.70;99.90;;;;;;5020256;28;20232;-50
2022/08/03 08:32:23;;;;;;;4.83;1.67;;;25.70;99.90;;;;;;5018193;28;20563;-50
2022/08/03 08:34:49;;;;;;;9.73;2.30;;;25.90;99.90;;;;;;5019380;28;20258;-50
2022/08/03 08:37:16;;;;;;;8.10;2.30;;;26.20;99.90;;;;;;5019781;28;20205;-50
2022/08/03 08:39:43;;;;;;;14.17;2.17;;;26.10;99.90;;;;;;5018930;28;20943;-51
2022/08/03 08:42:10;;;;;;;8.87;2.40;;;26.30;99.90;;;;;;5019742;28;20230;-50
2022/08/03 08:44:38;;;;;;;10.00;2.30;;;26.20;99.90;;;;;;5019506;28;20349;-50
2022/08/03 08:47:07;;;;;;;8.33;2.27;;;26.40;99.90;;;;;;5018337;28;20209;-50
2022/08/03 08:49:37;;;;;;;8.47;1.80;;;26.30;99.90;;;;;;5019449;28;20201;-50
2022/08/03 08:52:06;;;;;;;10.00;2.20;;;26.50;99.90;;;;;;5018156;28;20459;-52
2022/08/03 08:55:04;;;;;;;8.20;2.00;;;26.70;99.90;;;;;;5018235;28;20312;-51
2022/08/03 08:57:36;;;;;;;10.20;2.67;;;27.70;99.90;;;;;;5018833;28;20213;-52
2022/08/03 09:00:14;;;;;;;10.85;2.25;;;28.30;99.90;;;;;;5018736;28;20205;-52
2022/08/03 09:02:42;;;;;;;8.60;2.25;;;28.20;99.90;;;;;;5020043;28;20457;-52
2022/08/03 09:05:14;;;;;;;10.35;1.75;;;28.60;99.90;;;;;;5023067;28;20205;-51
2022/08/03 09:07:43;;;;;;;12.75;2.70;;;29.10;99.90;;;;;;5023252;28;20649;-52
2022/08/03 09:10:11;;;;;;;10.77;2.05;;;29.30;99.90;;;;;;5022514;28;20609;-52
2022/08/03 09:12:45;;;;;;;10.07;2.20;;;28.40;99.90;;;;;;5019841;28;20746;-53
2022/08/03 09:15:27;;;;;;;12.90;3.17;;;29.10;99.90;;;;;;5022797;28;20208;-53
2022/08/03 09:17:56;;;;;;;7.57;2.00;;;29.80;99.90;;;;;;5021854;28;20204;-54
2022/08/03 09:20:25;;;;;;;10.13;2.67;;;29.30;99.90;;;;;;5021573;28;20205;-52
2022/08/03 09:22:56;;;;;;;10.43;2.28;;;29.30;99.90;;;;;;5028848;28;20229;-51
2022/08/03 09:25:30;;;;;;;8.38;2.65;;;28.80;99.90;;;;;;5019235;28;20208;-52
2022/08/03 09:28:09;;;;;;;7.80;2.00;;;28.50;99.90;;;;;;5022216;28;20203;-53
2022/08/03 09:30:39;;;;;;;4.25;1.65;;;29.50;99.90;;;;;;5021799;28;20273;-52
2022/08/03 09:33:09;;;;;;;8.60;2.30;;;29.50;99.90;;;;;;5021676;28;20208;-49
2022/08/03 09:35:41;;;;;;;8.07;2.00;;;29.90;99.90;;;;;;5029150;28;20205;-52
2022/08/03 09:38:27;;;;;;;8.25;2.03;;;29.30;99.90;;;;;;5022636;28;20290;-50
2022/08/03 09:40:56;;;;;;;5.67;2.10;;;29.50;99.90;;;;;;5016473;28;20197;-51
2022/08/03 09:43:26;;;;;;;9.88;2.13;;;29.60;99.90;;;;;;5021880;28;20201;-50
2022/08/03 09:46:03;;;;;;;13.05;2.35;;;29.10;99.90;;;;;;5022030;28;20574;-51
2022/08/03 09:48:33;;;;;;;11.38;2.80;;;29.30;99.90;;;;;;5021106;28;20248;-51
2022/08/03 09:51:04;;;;;;;8.13;1.70;;;29.50;99.90;;;;;;5020643;28;20740;-49
2022/08/03 09:53:51;;;;;;;15.27;2.30;;;29.40;99.90;;;;;;5022056;28;20221;-53
2022/08/03 09:56:41;;;;;;;8.70;2.15;;;29.30;99.90;;;;;;5021196;28;20633;-50
2022/08/03 09:59:11;;;;;;;7.30;1.80;;;29.30;99.90;;;;;;5022238;28;20204;-52
2022/08/03 10:01:40;;;;;;;11.63;2.15;;;29.70;99.90;;;;;;5021821;28;20578;-51
2022/08/03 10:04:15;;;;;;;7.85;1.98;;;29.50;99.90;;;;;;5017836;28;20197;-50
2022/08/03 10:06:44;;;;;;;10.35;1.90;;;29.50;99.90;;;;;;5036945;28;20213;-50
2022/08/03 10:09:15;;;;;;;8.18;1.95;;;29.10;99.90;;;;;;5021332;28;20658;-51
2022/08/03 10:11:43;;;;;;;10.38;1.70;;;29.10;99.90;;;;;;5022546;28;20213;-49
2022/08/03 10:14:22;;;;;;;7.63;1.77;;;29.40;99.90;;;;;;5019085;28;20198;-51
2022/08/03 10:16:49;;;;;;;7.22;2.33;;;29.40;99.90;;;;;;5020609;28;20220;-51
2022/08/03 10:19:16;;;;;;;7.60;1.90;;;29.10;99.90;;;;;;5022319;28;20217;-49
2022/08/03 10:21:50;;;;;;;12.48;1.92;;;28.90;99.90;;;;;;5021318;28;20233;-50
2022/08/03 10:24:24;;;;;;;11.40;2.17;;;28.80;99.90;;;;;;5021231;28;20612;-50
2022/08/03 10:26:54;;;;;;;8.60;2.00;;;28.60;99.90;;;;;;5021859;28;20212;-50
2022/08/03 10:29:27;;;;;;;6.10;1.80;;;28.80;99.90;;;;;;5021542;28;20232;-49
2022/08/03 10:31:58;;;;;;;12.15;2.17;;;28.80;99.90;;;;;;5019946;28;20303;-48
2022/08/03 10:34:27;;;;;;;9.07;1.60;;;28.70;99.90;;;;;;5021167;28;20208;-48
2022/08/03 10:36:57;;;;;;;9.02;2.08;;;28.70;99.90;;;;;;5020691;28;20698;-49
2022/08/03 10:39:28;;;;;;;8.97;1.70;;;28.70;99.90;;;;;;5021905;28;20216;-50
2022/08/03 10:41:57;;;;;;;7.10;2.00;;;28.40;99.90;;;;;;5020793;28;20228;-50
2022/08/03 10:44:32;;;;;;;7.47;2.80;;;28.50;99.90;;;;;;5016612;28;20211;-48
2022/08/03 10:47:00;;;;;;;7.15;1.88;;;28.60;99.90;;;;;;5020759;28;20209;-57
2022/08/03 10:49:28;;;;;;;8.32;2.75;;;28.90;99.90;;;;;;5019623;28;20601;-51
2022/08/03 10:52:03;;;;;;;7.80;2.22;;;28.90;99.90;;;;;;5021324;28;20241;-51
2022/08/03 10:57:42;;;;;;;10.73;1.95;;;29.20;99.90;;;;;;5021266;28;20336;-49
2022/08/03 11:00:13;;;;;;;11.85;3.05;;;29.30;99.90;;;;;;5021000;28;20205;-52
2022/08/03 11:03:05;;;;;;;6.28;2.05;;;29.50;99.90;;;;;;5020647;28;20271;-49
2022/08/03 11:05:36;;;;;;;11.35;3.03;;;29.30;99.90;;;;;;5021195;28;20217;-49
2022/08/03 11:08:29;;;;;;;21.17;2.97;;;29.40;99.90;;;;;;5020726;28;20200;-49
2022/08/03 11:11:02;;;;;;;8.68;1.70;;;29.70;99.90;;;;;;5020149;28;20208;-49
2022/08/03 11:13:32;;;;;;;14.98;2.83;;;29.80;80.30;;;;;;5020323;28;20205;-50
2022/08/03 11:16:02;;;;;;;9.35;2.63;;;30.00;99.90;;;;;;5019786;28;20287;-50
2022/08/03 11:18:33;;;;;;;5.50;1.75;;;30.90;99.90;;;;;;5020769;28;20255;-51
2022/08/03 11:21:01;;;;;;;9.65;2.35;;;31.30;99.90;;;;;;5021624;28;20549;-48
2022/08/03 11:23:46;;;;;;;11.68;2.83;;;31.80;99.90;;;;;;5017434;28;20221;-48
2022/08/03 11:26:32;;;;;;;5.47;1.42;;;31.50;99.90;;;;;;5021153;28;20205;-53
2022/08/03 11:29:28;;;;;;;9.30;1.50;;;31.60;99.90;;;;;;5020059;28;20209;-50
2022/08/03 11:31:56;;;;;;;7.93;2.03;;;31.60;99.90;;;;;;5016208;28;20204;-51
2022/08/03 11:34:23;;;;;;;10.00;1.95;;;31.40;99.90;;;;;;5052479;28;20212;-52
2022/08/03 11:37:17;;;;;;;10.02;1.60;;;31.70;99.90;;;;;;5017214;28;20240;-50
2022/08/03 11:39:46;;;;;;;5.07;1.48;;;31.70;99.90;;;;;;5021325;28;20333;-52
2022/08/03 11:42:22;;;;;;;3.78;1.48;;;31.80;99.90;;;;;;5020544;28;20266;-51
2022/08/03 11:44:50;;;;;;;8.63;1.73;;;32.70;99.90;;;;;;5020458;28;20562;-52
2022/08/03 11:47:19;;;;;;;4.35;1.60;;;32.20;99.90;;;;;;5017560;28;20323;-52
2022/08/03 11:49:48;;;;;;;4.95;2.20;;;32.20;99.90;;;;;;5020179;28;20295;-52
2022/08/03 11:52:16;;;;;;;9.48;1.92;;;32.70;99.90;;;;;;5013489;28;20248;-51
2022/08/03 11:54:43;;;;;;;6.15;1.40;;;32.30;99.90;;;;;;5019657;28;20237;-52
2022/08/03 11:57:10;;;;;;;6.22;2.13;;;32.60;99.90;;;;;;5019810;28;20212;-50
2022/08/03 11:59:38;;;;;;;7.50;2.30;;;32.50;99.90;;;;;;5020362;28;20712;-51
2022/08/03 12:02:07;;;;;;;3.40;1.35;;;32.50;99.90;;;;;;5019826;28;20633;-52
2022/08/03 12:04:51;;;;;;;4.40;1.70;;;32.50;99.90;;;;;;5019183;28;20621;-51
2022/08/03 12:07:18;;;;;;;6.78;2.53;;;32.80;99.90;;;;;;5019167;28;20208;-51
2022/08/03 12:10:05;;;;;;;3.72;1.35;;;32.80;99.90;;;;;;5019796;28;20291;-54
2022/08/03 12:12:32;;;;;;;8.15;1.40;;;33.00;99.90;;;;;;5018345;28;20664;-52
2022/08/03 12:14:59;;;;;;;8.15;1.75;;;32.70;99.90;;;;;;5020460;28;20279;-56
2022/08/03 12:17:33;;;;;;;4.68;1.60;;;33.10;99.90;;;;;;5018912;28;20235;-52
2022/08/03 12:20:01;;;;;;;4.40;1.60;;;33.90;99.90;;;;;;5019423;28;20203;-54
2022/08/03 12:22:38;;;;;;;7.28;1.48;;;34.90;99.90;;;;;;5019851;28;20267;-52
2022/08/03 12:25:18;;;;;;;5.93;1.33;;;34.70;99.90;;;;;;5019984;28;20758;-51
2022/08/03 12:28:17;;;;;;;8.43;1.90;;;34.40;99.90;;;;;;5018341;28;20211;-52
2022/08/03 12:31:12;;;;;;;4.68;1.48;;;34.50;99.90;;;;;;5019159;28;20822;-52
2022/08/03 12:33:59;;;;;;;3.97;1.40;;;33.60;99.90;;;;;;5019540;28;20269;-52
2022/08/03 12:36:27;;;;;;;3.80;1.55;;;34.40;99.90;;;;;;5018430;28;20720;-52
2022/08/03 12:38:59;;;;;;;5.28;1.48;;;34.30;99.90;;;;;;5020859;28;20640;-53
2022/08/03 12:41:34;;;;;;;9.70;1.67;;;34.00;99.90;;;;;;5020454;28;20208;-51
2022/08/03 12:44:05;;;;;;;4.50;1.40;;;34.20;99.90;;;;;;5006390;28;20652;-54
2022/08/03 12:46:37;;;;;;;5.95;1.77;;;33.50;99.90;;;;;;5022373;28;20279;-52
2022/08/03 12:49:14;;;;;;;9.52;1.98;;;33.40;99.90;;;;;;5023673;28;20200;-52
2022/08/03 12:51:41;;;;;;;7.40;1.27;;;34.20;99.90;;;;;;5021693;28;20241;-52
2022/08/03 12:54:14;;;;;;;5.15;1.73;;;34.30;99.90;;;;;;5023241;28;20601;-50
2022/08/03 12:56:59;;;;;;;6.68;1.33;;;34.40;99.90;;;;;;5022197;28;20204;-50
2022/08/03 12:59:30;;;;;;;9.63;1.50;;;34.20;99.90;;;;;;5021581;28;20208;-51
2022/08/03 13:02:02;;;;;;;5.97;1.60;;;34.10;99.90;;;;;;5022811;28;20703;-54
2022/08/03 13:04:35;;;;;;;4.75;1.90;;;33.50;99.90;;;;;;5022027;28;20320;-52
2022/08/03 13:07:07;;;;;;;7.13;1.90;;;33.40;99.90;;;;;;5024434;28;20576;-53
2022/08/03 13:10:06;;;;;;;6.10;1.42;;;33.20;99.90;;;;;;5022342;28;20284;-52
2022/08/03 13:12:48;;;;;;;6.13;1.33;;;32.50;99.90;;;;;;5020772;28;20751;-53
2022/08/03 13:15:16;;;;;;;4.95;1.73;;;32.90;99.90;;;;;;5006397;28;20211;-54
2022/08/03 13:17:43;;;;;;;6.72;1.40;;;33.40;99.90;;;;;;5022645;28;20202;-53
2022/08/03 13:20:10;;;;;;;5.43;1.67;;;32.70;99.90;;;;;;5017772;28;20263;-52